createdAt,value
2022-12-16T00:01:20.874Z,100.00
2022-12-16T00:04:22.966Z,100.00
2022-12-16T00:07:24.958Z,100.00
2022-12-16T00:10:47.436Z,100.00
2022-12-16T00:13:50.048Z,100.00
2022-12-16T00:16:52.363Z,100.00
2022-12-16T00:19:54.044Z,100.00
2022-12-16T00:22:58.313Z,100.00
2022-12-16T00:26:00.689Z,100.00
2022-12-16T00:29:05.504Z,100.00
2022-12-16T00:32:07.368Z,99.61
2022-12-16T00:35:10.078Z,99.61
2022-12-16T00:38:12.093Z,100.00
2022-12-16T00:41:14.011Z,100.00
2022-12-16T00:44:15.730Z,100.00
2022-12-16T00:47:22.807Z,100.00
2022-12-16T00:50:24.955Z,99.92
2022-12-16T00:53:26.847Z,100.00
2022-12-16T00:56:28.813Z,100.00
2022-12-16T00:59:30.647Z,100.00
2022-12-16T01:02:32.958Z,100.00
2022-12-16T01:05:34.905Z,100.00
2022-12-16T01:08:39.168Z,100.00
2022-12-16T01:11:41.979Z,100.00
2022-12-16T01:14:44.230Z,100.00
2022-12-16T01:17:46.314Z,100.00
2022-12-16T01:20:48.198Z,100.00
2022-12-16T01:23:50.128Z,100.00
2022-12-16T01:26:52.454Z,100.00
2022-12-16T01:29:54.581Z,100.00
2022-12-16T01:32:57.183Z,100.00
2022-12-16T01:36:03.921Z,100.00
2022-12-16T01:39:05.652Z,100.00
2022-12-16T01:42:15.458Z,100.00
2022-12-16T01:45:28.920Z,100.00
2022-12-16T01:48:36.604Z,100.00
2022-12-16T01:51:50.460Z,100.00
2022-12-16T01:55:01.443Z,100.00
2022-12-16T01:58:07.836Z,100.00
2022-12-16T02:01:10.745Z,100.00
2022-12-16T02:04:13.473Z,100.00
2022-12-16T02:07:16.177Z,100.00
2022-12-16T02:10:19.800Z,100.00
2022-12-16T02:14:01.930Z,100.00
2022-12-16T02:17:22.702Z,100.00
2022-12-16T02:20:31.047Z,100.00
2022-12-16T02:23:51.630Z,100.00
2022-12-16T02:26:58.471Z,100.00
2022-12-16T02:30:27.192Z,100.00
2022-12-16T02:33:48.072Z,100.00
2022-12-16T02:37:10.761Z,100.00
2022-12-16T02:40:27.601Z,100.00
2022-12-16T02:43:52.008Z,100.00
2022-12-16T02:46:56.280Z,99.09
2022-12-16T02:49:58.704Z,99.16
2022-12-16T02:53:03.301Z,98.49
2022-12-16T02:56:27.270Z,97.83
2022-12-16T02:59:44.497Z,96.94
2022-12-16T03:02:50.125Z,97.77
2022-12-16T03:05:53.403Z,97.35
2022-12-16T03:08:57.530Z,98.01
2022-12-16T03:12:02.448Z,96.76
2022-12-16T03:15:05.786Z,96.75
2022-12-16T03:18:10.074Z,97.38
2022-12-16T03:21:13.787Z,96.02
2022-12-16T03:24:16.118Z,96.04
2022-12-16T03:27:22.019Z,95.64
2022-12-16T03:30:28.784Z,96.09
2022-12-16T03:33:46.208Z,96.22
2022-12-16T03:36:51.919Z,94.83
2022-12-16T03:39:56.930Z,96.02
2022-12-16T03:43:01.514Z,95.64
2022-12-16T03:46:14.963Z,97.15
2022-12-16T03:49:16.956Z,96.38
2022-12-16T03:52:18.870Z,96.43
2022-12-16T03:55:21.066Z,96.83
2022-12-16T03:58:22.909Z,96.63
2022-12-16T04:01:25.137Z,96.08
2022-12-16T04:04:27.139Z,95.04
2022-12-16T04:07:28.957Z,95.02
2022-12-16T04:10:50.018Z,94.80
2022-12-16T04:14:10.449Z,95.43
2022-12-16T04:17:31.712Z,95.88
2022-12-16T04:20:55.619Z,95.40
2022-12-16T04:24:16.516Z,95.63
2022-12-16T04:27:27.941Z,95.28
2022-12-16T04:30:34.881Z,94.58
2022-12-16T04:33:55.510Z,94.55
2022-12-16T04:37:18.546Z,94.86
2022-12-16T04:40:38.797Z,95.04
2022-12-16T04:43:59.471Z,94.79
2022-12-16T04:47:20.268Z,94.89
2022-12-16T04:50:40.815Z,95.30
2022-12-16T04:54:01.331Z,95.03
2022-12-16T04:57:21.904Z,95.34
2022-12-16T05:00:42.726Z,94.96
2022-12-16T05:04:03.298Z,94.49
2022-12-16T05:07:23.990Z,93.83
2022-12-16T05:10:44.445Z,94.81
2022-12-16T05:14:04.928Z,94.56
2022-12-16T05:17:25.080Z,95.47
2022-12-16T05:20:47.812Z,95.15
2022-12-16T05:24:08.150Z,95.22
2022-12-16T05:27:28.965Z,95.20
2022-12-16T05:30:49.388Z,94.96
2022-12-16T05:34:09.590Z,95.81
2022-12-16T05:37:30.234Z,95.95
2022-12-16T05:40:50.967Z,95.14
2022-12-16T05:44:11.545Z,95.73
2022-12-16T05:47:32.298Z,96.68
2022-12-16T05:50:53.350Z,97.58
2022-12-16T05:54:16.284Z,97.91
2022-12-16T05:57:36.504Z,96.24
2022-12-16T06:00:57.118Z,95.16
2022-12-16T06:04:19.530Z,95.90
2022-12-16T06:07:40.388Z,96.02
2022-12-16T06:11:00.890Z,96.43
2022-12-16T06:14:21.324Z,96.63
2022-12-16T06:17:42.231Z,97.20
2022-12-16T06:21:05.254Z,96.99
2022-12-16T06:24:25.685Z,98.71
2022-12-16T06:27:46.372Z,99.91
2022-12-16T06:31:06.923Z,100.00
2022-12-16T06:34:27.438Z,100.00
2022-12-16T06:37:48.131Z,100.00
2022-12-16T06:41:11.117Z,99.67
2022-12-16T06:44:31.837Z,100.00
2022-12-16T06:47:52.355Z,99.90
2022-12-16T06:51:13.151Z,100.00
2022-12-16T06:54:33.532Z,100.00
2022-12-16T06:57:54.884Z,100.00
2022-12-16T07:01:15.288Z,100.00
2022-12-16T07:04:35.880Z,100.00
2022-12-16T07:07:56.443Z,100.00
2022-12-16T07:11:17.492Z,100.00
2022-12-16T07:14:40.781Z,100.00
2022-12-16T07:18:03.709Z,100.00
2022-12-16T07:21:24.744Z,100.00
2022-12-16T07:24:45.320Z,100.00
2022-12-16T07:28:09.425Z,100.00
2022-12-16T07:31:34.196Z,100.00
2022-12-16T07:34:54.578Z,100.00
2022-12-16T07:38:15.931Z,100.00
2022-12-16T07:41:36.493Z,100.00
2022-12-16T07:44:57.633Z,100.00
2022-12-16T07:48:18.300Z,100.00
2022-12-16T07:51:38.795Z,100.00
2022-12-16T07:54:59.414Z,100.00
2022-12-16T07:58:19.792Z,100.00
2022-12-16T08:01:40.354Z,100.00
2022-12-16T08:05:01.289Z,100.00
2022-12-16T08:08:23.118Z,100.00
2022-12-16T08:11:43.823Z,100.00
2022-12-16T08:15:04.705Z,100.00
2022-12-16T08:18:26.037Z,100.00
2022-12-16T08:21:46.426Z,100.00
2022-12-16T08:25:06.475Z,100.00
2022-12-16T08:28:26.742Z,100.00
2022-12-16T08:31:47.261Z,100.00
2022-12-16T08:35:07.725Z,100.00
2022-12-16T08:38:29.564Z,100.00
2022-12-16T08:41:51.421Z,100.00
2022-12-16T08:45:14.478Z,100.00
2022-12-16T08:48:34.759Z,100.00
2022-12-16T08:51:55.495Z,100.00
2022-12-16T08:55:16.246Z,100.00
2022-12-16T08:58:36.841Z,100.00
2022-12-16T09:01:57.531Z,100.00
2022-12-16T09:05:18.207Z,100.00
2022-12-16T09:08:38.635Z,100.00
2022-12-16T09:11:59.496Z,98.69
2022-12-16T09:15:20.074Z,97.77
2022-12-16T09:18:40.658Z,97.79
2022-12-16T09:22:01.209Z,96.87
2022-12-16T09:25:22.020Z,96.63
2022-12-16T09:28:42.482Z,95.75
2022-12-16T09:32:03.187Z,94.86
2022-12-16T09:35:24.073Z,96.50
2022-12-16T09:38:44.515Z,95.88
2022-12-16T09:42:21.017Z,93.50
2022-12-16T09:45:52.471Z,94.76
2022-12-16T09:49:36.947Z,96.43
2022-12-16T09:53:03.975Z,97.51
2022-12-16T09:56:29.402Z,96.44
2022-12-16T09:59:53.402Z,97.77
2022-12-16T10:03:16.131Z,98.01
2022-12-16T10:06:55.811Z,98.48
2022-12-16T10:10:27.167Z,99.94
2022-12-16T10:13:56.600Z,99.44
2022-12-16T10:17:29.239Z,100.00
2022-12-16T10:21:18.954Z,100.00
2022-12-16T10:24:51.678Z,100.00
2022-12-16T10:28:17.941Z,100.00
2022-12-16T10:31:38.945Z,99.92
2022-12-16T10:35:00.110Z,99.36
2022-12-16T10:38:21.036Z,99.36
2022-12-16T10:41:45.481Z,100.00
2022-12-16T10:45:18.271Z,99.34
2022-12-16T10:48:53.598Z,98.79
2022-12-16T10:52:16.971Z,98.75
2022-12-16T10:55:56.249Z,98.38
2022-12-16T10:59:24.608Z,98.50
2022-12-16T11:02:47.697Z,98.12
2022-12-16T11:06:08.677Z,98.11
2022-12-16T11:09:46.700Z,98.13
2022-12-16T11:13:07.086Z,99.87
2022-12-16T11:16:36.807Z,100.00
2022-12-16T11:19:57.341Z,100.00
2022-12-16T11:23:33.742Z,100.00
2022-12-16T11:26:54.619Z,100.00
2022-12-16T11:30:18.959Z,100.00
2022-12-16T11:33:43.214Z,100.00
2022-12-16T11:37:04.823Z,100.00
2022-12-16T11:40:31.629Z,100.00
2022-12-16T11:43:52.646Z,100.00
2022-12-16T11:47:13.295Z,100.00
2022-12-16T11:50:36.354Z,100.00
2022-12-16T11:54:04.340Z,100.00
2022-12-16T11:57:41.624Z,100.00
2022-12-16T12:01:17.129Z,100.00
2022-12-16T12:04:38.165Z,100.00
2022-12-16T12:08:10.369Z,100.00
2022-12-16T12:11:49.540Z,100.00
2022-12-16T12:15:18.974Z,100.00
2022-12-16T12:19:18.497Z,100.00
2022-12-16T12:22:45.385Z,100.00
2022-12-16T12:26:31.544Z,100.00
2022-12-16T12:30:19.087Z,100.00
2022-12-16T12:34:09.034Z,100.00
2022-12-16T12:38:12.755Z,100.00
2022-12-16T12:42:08.436Z,100.00
2022-12-16T12:45:53.548Z,100.00
2022-12-16T12:49:22.859Z,100.00
2022-12-16T12:52:55.680Z,100.00
2022-12-16T12:56:24.548Z,100.00
2022-12-16T12:59:50.643Z,100.00
2022-12-16T13:03:26.016Z,100.00
2022-12-16T13:06:47.617Z,100.00
2022-12-16T13:10:30.796Z,100.00
2022-12-16T13:13:53.092Z,100.00
2022-12-16T13:17:13.814Z,100.00
2022-12-16T13:20:53.102Z,100.00
2022-12-16T13:24:13.620Z,100.00
2022-12-16T13:27:35.696Z,100.00
2022-12-16T13:30:56.443Z,100.00
2022-12-16T13:34:23.216Z,100.00
2022-12-16T13:37:44.683Z,100.00
2022-12-16T13:41:13.511Z,100.00
2022-12-16T13:45:02.740Z,100.00
2022-12-16T13:48:24.653Z,100.00
2022-12-16T13:51:57.561Z,100.00
2022-12-16T13:56:05.356Z,100.00
2022-12-16T13:59:34.045Z,100.00
2022-12-16T14:02:58.391Z,100.00
2022-12-16T14:06:20.550Z,100.00
2022-12-16T14:10:01.917Z,100.00
2022-12-16T14:13:26.769Z,100.00
2022-12-16T14:17:02.919Z,100.00
2022-12-16T14:20:39.493Z,100.00
2022-12-16T14:24:06.545Z,100.00
2022-12-16T14:27:36.514Z,100.00
2022-12-16T14:30:57.872Z,100.00
2022-12-16T14:34:21.237Z,100.00
2022-12-16T14:37:57.342Z,100.00
2022-12-16T14:41:18.516Z,100.00
2022-12-16T14:44:42.033Z,100.00
2022-12-16T14:48:02.476Z,100.00
2022-12-16T14:51:52.891Z,100.00
2022-12-16T14:55:13.429Z,100.00
2022-12-16T14:58:36.504Z,100.00
2022-12-16T15:01:57.332Z,100.00
2022-12-16T15:05:19.492Z,100.00
2022-12-16T15:08:40.581Z,100.00
2022-12-16T15:12:03.364Z,100.00
2022-12-16T15:15:27.740Z,100.00
2022-12-16T15:18:52.030Z,100.00
2022-12-16T15:22:25.930Z,100.00
2022-12-16T15:25:51.046Z,100.00
2022-12-16T15:29:12.402Z,100.00
2022-12-16T15:32:45.286Z,100.00
2022-12-16T15:36:05.597Z,100.00
2022-12-16T15:39:39.427Z,100.00
2022-12-16T15:43:00.127Z,100.00
2022-12-16T15:46:20.894Z,100.00
2022-12-16T15:49:48.109Z,100.00
2022-12-16T15:53:52.815Z,100.00
2022-12-16T15:57:22.810Z,100.00
2022-12-16T16:01:06.879Z,100.00
2022-12-16T16:04:41.129Z,100.00
2022-12-16T16:12:46.524Z,100.00
2022-12-16T16:21:10.870Z,100.00
2022-12-16T16:33:17.842Z,100.00
2022-12-16T16:41:48.317Z,100.00
2022-12-16T16:45:32.713Z,100.00
2022-12-16T16:52:43.683Z,100.00
2022-12-16T16:58:20.614Z,100.00
2022-12-16T17:00:42.290Z,100.00
2022-12-16T17:04:04.108Z,100.00
2022-12-16T17:07:25.006Z,100.00
2022-12-16T17:14:32.388Z,100.00
2022-12-16T17:22:03.538Z,100.00
2022-12-16T17:29:15.629Z,100.00
2022-12-16T17:33:14.959Z,100.00
2022-12-16T17:36:36.876Z,100.00
2022-12-16T17:40:21.288Z,100.00
2022-12-16T17:44:02.952Z,100.00
2022-12-16T17:47:37.017Z,100.00
2022-12-16T17:51:21.889Z,100.00
2022-12-16T17:54:53.600Z,100.00
2022-12-16T17:59:05.442Z,100.00
2022-12-16T18:02:38.811Z,100.00
2022-12-16T18:06:20.919Z,100.00
2022-12-16T18:09:41.894Z,100.00
2022-12-16T18:13:08.610Z,100.00
2022-12-16T18:16:29.154Z,100.00
2022-12-16T18:20:09.133Z,100.00
2022-12-16T18:27:52.890Z,100.00
2022-12-16T18:31:34.223Z,100.00
2022-12-16T18:35:00.788Z,100.00
2022-12-16T18:38:21.686Z,100.00
2022-12-16T18:41:42.378Z,100.00
2022-12-16T18:45:16.019Z,100.00
2022-12-16T18:48:40.792Z,100.00
2022-12-16T18:52:05.472Z,100.00
2022-12-16T18:55:33.636Z,100.00
2022-12-16T18:58:55.355Z,100.00
2022-12-16T19:02:33.880Z,100.00
2022-12-16T19:05:54.938Z,100.00
2022-12-16T19:09:16.315Z,100.00
2022-12-16T19:12:38.061Z,100.00
2022-12-16T19:20:44.395Z,100.00
2022-12-16T19:24:43.278Z,100.00
2022-12-16T19:28:04.383Z,100.00
2022-12-16T19:31:31.039Z,100.00
2022-12-16T19:35:03.783Z,100.00
2022-12-16T19:38:25.089Z,100.00
2022-12-16T19:41:46.507Z,100.00
2022-12-16T19:45:07.978Z,100.00
2022-12-16T19:48:29.376Z,100.00
2022-12-16T19:51:51.768Z,100.00
2022-12-16T19:55:17.205Z,100.00
2022-12-16T19:58:42.249Z,100.00
2022-12-16T20:02:03.095Z,100.00
2022-12-16T20:05:24.575Z,100.00
2022-12-16T20:08:46.482Z,100.00
2022-12-16T20:12:07.504Z,100.00
2022-12-16T20:15:28.789Z,100.00
2022-12-16T20:18:50.200Z,100.00
2022-12-16T20:22:13.269Z,100.00
2022-12-16T20:25:36.912Z,100.00
2022-12-16T20:28:59.356Z,100.00
2022-12-16T20:32:20.411Z,100.00
2022-12-16T20:35:42.410Z,100.00
2022-12-16T20:39:03.534Z,100.00
2022-12-16T20:42:25.826Z,100.00
2022-12-16T20:45:46.551Z,100.00
2022-12-16T20:49:48.002Z,100.00
2022-12-16T20:53:08.583Z,99.97
2022-12-16T20:56:38.250Z,98.77
2022-12-16T20:59:59.153Z,98.40
2022-12-16T21:03:20.558Z,97.65
2022-12-16T21:06:41.711Z,97.43
2022-12-16T21:10:02.899Z,96.98
2022-12-16T21:13:36.728Z,97.04
2022-12-16T21:16:58.759Z,95.88
2022-12-16T21:20:19.852Z,96.96
2022-12-16T21:23:41.093Z,96.51
2022-12-16T21:27:01.988Z,95.87
2022-12-16T21:30:23.073Z,96.33
2022-12-16T21:33:44.703Z,96.63
2022-12-16T21:37:09.911Z,97.29
2022-12-16T21:40:33.701Z,96.27
2022-12-16T21:44:04.048Z,96.74
2022-12-16T21:47:25.124Z,96.57
2022-12-16T21:50:45.904Z,97.07
2022-12-16T21:54:09.862Z,97.05
2022-12-16T21:57:30.647Z,96.96
2022-12-16T22:00:53.572Z,96.53
2022-12-16T22:04:20.040Z,96.58
2022-12-16T22:07:40.761Z,95.66
2022-12-16T22:11:24.466Z,96.99
2022-12-16T22:14:45.058Z,95.80
2022-12-16T22:18:05.572Z,96.00
2022-12-16T22:21:26.357Z,96.00
2022-12-16T22:24:46.826Z,96.12
2022-12-16T22:28:07.539Z,95.92
2022-12-16T22:31:28.158Z,96.60
2022-12-16T22:34:48.590Z,97.93
2022-12-16T22:38:09.192Z,98.43
2022-12-16T22:41:30.493Z,100.00
2022-12-16T22:44:51.375Z,100.00
2022-12-16T22:48:12.582Z,100.00
2022-12-16T22:51:33.800Z,100.00
2022-12-16T22:54:54.972Z,100.00
2022-12-16T22:58:15.686Z,100.00
2022-12-16T23:01:36.532Z,100.00
2022-12-16T23:04:57.490Z,100.00
2022-12-16T23:08:46.235Z,100.00
2022-12-16T23:12:06.718Z,99.89
2022-12-16T23:15:30.509Z,99.58
2022-12-16T23:18:50.936Z,99.61
2022-12-16T23:22:16.677Z,99.14
2022-12-16T23:25:41.246Z,98.92
2022-12-16T23:29:02.261Z,99.67
2022-12-16T23:32:31.563Z,98.85
2022-12-16T23:35:52.372Z,98.92
2022-12-16T23:39:19.789Z,98.63
2022-12-16T23:42:41.312Z,99.66
2022-12-16T23:46:05.630Z,98.39
2022-12-16T23:49:27.458Z,97.56
2022-12-16T23:52:52.002Z,97.91
2022-12-16T23:56:17.601Z,99.15
2022-12-16T23:59:38.362Z,98.41
